Time;durP1;ratioP1;P1;durP2;ratioP2;P2;SDS_P1;SDS_P2;PMS_P1;PMS_P2;Temp;Humidity;BMP_temperature;BMP_pressure;BME280_temperature;BME280_humidity;BME280_pressure;Samples;Min_cycle;Max_cycle;Signal;HPM_P1;HPM_P2
2023/08/16 00:00:53;;;;;;;8.30;4.18;;;;;;;18.65;100.00;99037.19;5011172;28;20025;-75
2023/08/16 00:03:18;;;;;;;5.72;4.13;;;;;;;18.64;100.00;99051.19;5013370;28;20108;-75
2023/08/16 00:05:44;;;;;;;5.72;3.97;;;;;;;18.67;100.00;99050.66;5014171;28;20120;-76
2023/08/16 00:08:09;;;;;;;10.63;3.78;;;;;;;18.76;100.00;99073.88;5005702;28;20125;-75
2023/08/16 00:10:35;;;;;;;6.13;3.78;;;;;;;18.70;100.00;99074.84;5013260;28;20025;-75
2023/08/16 00:13:00;;;;;;;6.75;4.00;;;;;;;18.60;100.00;99067.25;5005351;28;20059;-76
2023/08/16 00:15:26;;;;;;;6.65;3.72;;;;;;;18.51;100.00;99055.91;5015712;28;20032;-75
2023/08/16 00:17:52;;;;;;;10.27;3.72;;;;;;;18.53;100.00;99063.88;5029005;28;20088;-75
2023/08/16 00:20:19;;;;;;;9.52;3.70;;;;;;;18.55;100.00;99073.50;5019194;28;20034;-75
2023/08/16 00:22:45;;;;;;;5.68;3.22;;;;;;;18.54;100.00;99068.28;5029952;28;20051;-75
2023/08/16 00:25:10;;;;;;;5.88;3.80;;;;;;;18.57;100.00;99071.34;5032276;28;20478;-75
2023/08/16 00:27:35;;;;;;;6.43;3.72;;;;;;;18.49;100.00;99066.28;5044641;28;20029;-75
2023/08/16 00:30:01;;;;;;;8.93;3.83;;;;;;;18.52;100.00;99082.25;5031861;28;20035;-75
2023/08/16 00:32:26;;;;;;;5.07;4.10;;;;;;;18.44;100.00;99070.84;5030349;28;20021;-75
2023/08/16 00:34:52;;;;;;;12.30;4.00;;;;;;;18.40;100.00;99073.25;5028683;28;20490;-75
2023/08/16 00:37:17;;;;;;;6.70;4.07;;;;;;;18.32;100.00;99066.28;5024097;28;20029;-75
2023/08/16 00:39:43;;;;;;;9.40;4.20;;;;;;;18.28;100.00;99064.28;5031860;28;20113;-75
2023/08/16 00:42:08;;;;;;;5.78;3.97;;;;;;;18.34;100.00;99079.72;5031478;28;20471;-76
2023/08/16 00:44:34;;;;;;;7.60;4.28;;;;;;;18.31;100.00;99069.25;5031759;28;20116;-76
2023/08/16 00:47:00;;;;;;;8.60;4.10;;;;;;;18.34;100.00;99080.56;5007168;28;20026;-76
2023/08/16 00:49:26;;;;;;;12.23;4.22;;;;;;;18.16;100.00;99051.47;5014503;28;20410;-75
2023/08/16 00:51:51;;;;;;;5.80;3.65;;;;;;;18.26;100.00;99066.41;5029023;28;20028;-75
2023/08/16 00:54:16;;;;;;;11.65;3.75;;;;;;;18.23;100.00;99048.56;5035438;28;20433;-75
2023/08/16 00:56:43;;;;;;;7.93;3.47;;;;;;;18.24;100.00;99043.94;5029968;28;20116;-75
2023/08/16 00:59:08;;;;;;;5.90;3.45;;;;;;;18.22;100.00;99051.56;5034021;28;20025;-75
2023/08/16 01:01:33;;;;;;;6.60;4.13;;;;;;;18.10;100.00;99041.53;5032382;28;20510;-75
2023/08/16 01:03:59;;;;;;;9.60;4.32;;;;;;;18.18;100.00;99053.97;5029046;28;20063;-75
2023/08/16 01:06:24;;;;;;;8.65;4.68;;;;;;;18.12;100.00;99044.00;5016434;28;20025;-75
2023/08/16 01:08:51;;;;;;;9.07;3.75;;;;;;;18.17;100.00;99053.13;5035210;28;20562;-75
2023/08/16 01:11:23;;;;;;;7.03;3.67;;;;;;;18.07;100.00;99025.56;5031774;28;20483;-75
2023/08/16 01:14:09;;;;;;;5.65;3.55;;;;;;;18.15;100.00;99038.84;5033731;28;20031;-75
2023/08/16 01:16:38;;;;;;;7.20;3.72;;;;;;;18.14;100.00;99028.97;5010942;28;20068;-76
2023/08/16 01:19:20;;;;;;;7.00;3.60;;;;;;;18.04;100.00;99020.59;5034811;28;20018;-75
2023/08/16 01:21:58;;;;;;;7.22;3.67;;;;;;;18.00;100.00;99013.09;5017870;28;20017;-75
2023/08/16 01:24:34;;;;;;;14.48;4.15;;;;;;;18.04;100.00;99014.28;5033439;28;20032;-75
2023/08/16 01:27:00;;;;;;;7.80;3.90;;;;;;;18.04;100.00;99020.59;5024710;28;20032;-75
2023/08/16 01:29:26;;;;;;;6.13;3.70;;;;;;;18.06;100.00;99026.66;5025248;28;20036;-75
2023/08/16 01:31:52;;;;;;;7.40;3.53;;;;;;;17.98;100.00;99010.63;5032777;28;20116;-75
2023/08/16 01:34:17;;;;;;;5.97;4.00;;;;;;;18.13;100.00;99026.47;5033674;28;20036;-76
2023/08/16 01:36:43;;;;;;;7.45;3.80;;;;;;;18.22;100.00;99011.31;5034110;28;20028;-75
2023/08/16 01:39:08;;;;;;;10.73;3.90;;;;;;;18.29;100.00;99011.16;5026547;28;20079;-76
2023/08/16 01:41:50;;;;;;;4.60;3.67;;;;;;;18.25;100.00;99010.81;5024513;28;20486;-75
2023/08/16 01:44:18;;;;;;;4.68;3.35;;;;;;;18.13;100.00;98999.94;5029250;28;20154;-76
2023/08/16 01:46:45;;;;;;;5.75;3.85;;;;;;;18.09;100.00;99001.50;5033808;28;20479;-75
2023/08/16 01:49:12;;;;;;;5.18;3.83;;;;;;;17.97;100.00;98995.25;5034105;28;20029;-75
2023/08/16 01:51:38;;;;;;;7.85;3.83;;;;;;;17.97;100.00;99003.47;5033837;28;20112;-74
2023/08/16 01:54:03;;;;;;;5.75;4.07;;;;;;;17.85;100.00;98995.34;5031688;28;20108;-75
2023/08/16 01:56:29;;;;;;;6.50;4.57;;;;;;;17.87;100.00;98992.38;5036940;28;20127;-75
2023/08/16 01:58:54;;;;;;;9.15;4.30;;;;;;;17.78;100.00;98999.28;5025025;28;20021;-75
2023/08/16 02:01:20;;;;;;;7.85;4.60;;;;;;;17.78;100.00;98999.28;5028464;28;20068;-75
2023/08/16 02:03:45;;;;;;;7.82;4.75;;;;;;;17.78;100.00;99007.50;5032157;28;20029;-76
2023/08/16 02:06:10;;;;;;;8.20;5.10;;;;;;;17.71;100.00;99003.00;5034876;28;20022;-76
2023/08/16 02:08:36;;;;;;;7.25;4.95;;;;;;;17.73;100.00;99005.47;5016592;28;20437;-76
2023/08/16 02:11:01;;;;;;;8.30;4.93;;;;;;;17.58;100.00;98986.88;5019703;28;20025;-76
2023/08/16 02:13:26;;;;;;;7.75;5.20;;;;;;;17.64;100.00;99004.22;5032975;28;20021;-75
2023/08/16 02:16:02;;;;;;;8.70;5.47;;;;;;;17.61;100.00;98994.59;5025245;28;20025;-76
2023/08/16 02:18:28;;;;;;;8.90;5.00;;;;;;;17.71;100.00;99013.09;5027673;28;20132;-76
2023/08/16 02:20:53;;;;;;;8.18;4.85;;;;;;;17.53;100.00;98993.09;5033296;28;20423;-75
2023/08/16 02:23:18;;;;;;;9.32;5.38;;;;;;;17.58;100.00;98995.09;5033946;28;20483;-76
2023/08/16 02:25:44;;;;;;;10.80;5.90;;;;;;;17.56;100.00;99007.34;5011636;28;20029;-75
2023/08/16 02:28:09;;;;;;;11.85;6.03;;;;;;;17.45;100.00;98989.91;5033867;28;20427;-75
2023/08/16 02:30:34;;;;;;;8.77;5.47;;;;;;;17.43;100.00;98990.16;5031825;28;20087;-75
2023/08/16 02:33:00;;;;;;;7.55;5.20;;;;;;;17.55;100.00;99000.22;5036227;28;20025;-75
2023/08/16 02:35:25;;;;;;;9.57;5.03;;;;;;;17.52;100.00;98998.78;5022057;28;20022;-75
2023/08/16 02:37:51;;;;;;;10.27;5.38;;;;;;;17.48;100.00;98989.44;5005309;28;20116;-75
2023/08/16 02:40:16;;;;;;;9.07;5.15;;;;;;;17.52;100.00;99001.53;5032382;28;20052;-76
2023/08/16 02:42:42;;;;;;;6.32;4.90;;;;;;;17.48;100.00;98994.91;5033670;28;20479;-76
2023/08/16 02:45:08;;;;;;;7.55;5.03;;;;;;;17.50;100.00;99000.94;5031074;28;20502;-76
2023/08/16 02:47:33;;;;;;;10.57;5.50;;;;;;;17.52;100.00;99001.53;5032989;28;21017;-75
2023/08/16 02:49:58;;;;;;;7.43;5.50;;;;;;;17.59;100.00;99007.69;5040636;28;20029;-77
2023/08/16 02:52:23;;;;;;;5.45;4.43;;;;;;;17.62;100.00;99018.13;5038291;28;20051;-75
2023/08/16 02:54:49;;;;;;;8.23;5.38;;;;;;;17.58;100.00;99013.38;5031438;28;20025;-76
2023/08/16 02:57:16;;;;;;;8.90;5.38;;;;;;;17.61;100.00;99011.03;5035751;28;20390;-76
2023/08/16 02:59:46;;;;;;;7.57;5.20;;;;;;;17.60;100.00;99013.97;5031481;28;20032;-75
2023/08/16 03:02:12;;;;;;;12.77;5.05;;;;;;;17.40;100.00;98995.28;5029112;28;20025;-76
2023/08/16 03:04:39;;;;;;;10.25;5.43;;;;;;;17.58;100.00;99007.91;5014237;28;20443;-76
2023/08/16 03:07:08;;;;;;;7.00;4.70;;;;;;;17.55;100.00;99011.97;5018037;28;20029;-77
2023/08/16 03:09:35;;;;;;;9.63;5.38;;;;;;;17.59;100.00;99020.53;5037658;28;20064;-75
2023/08/16 03:12:01;;;;;;;13.20;5.70;;;;;;;17.52;100.00;99010.56;5052168;28;20047;-76
2023/08/16 03:14:30;;;;;;;14.25;5.85;;;;;;;17.53;100.00;99022.34;5045768;28;20033;-76
2023/08/16 03:16:56;;;;;;;11.38;5.30;;;;;;;17.49;100.00;99024.72;5044289;28;20046;-76
2023/08/16 03:19:22;;;;;;;6.72;4.47;;;;;;;17.37;100.00;99020.34;5024511;28;20033;-76
2023/08/16 03:21:47;;;;;;;6.40;5.38;;;;;;;17.25;100.00;99023.97;5031903;28;20448;-75
2023/08/16 03:24:13;;;;;;;6.65;5.20;;;;;;;17.22;100.00;99038.13;5034869;28;20021;-76
2023/08/16 03:26:38;;;;;;;10.63;5.10;;;;;;;17.16;100.00;99033.63;5015998;28;20029;-76
2023/08/16 03:29:04;;;;;;;8.00;5.13;;;;;;;17.16;100.00;99058.25;5006331;28;20411;-76
2023/08/16 03:31:29;;;;;;;6.80;5.10;;;;;;;17.13;100.00;99055.13;5026164;28;20544;-75
2023/08/16 03:33:55;;;;;;;8.73;5.55;;;;;;;17.07;100.00;99056.94;5016370;28;20098;-75
2023/08/16 03:36:20;;;;;;;8.80;5.50;;;;;;;17.08;100.00;99058.56;5035726;28;20033;-76
2023/08/16 03:38:45;;;;;;;9.85;5.50;;;;;;;17.14;100.00;99065.00;5019172;28;20061;-75
2023/08/16 03:41:11;;;;;;;9.32;6.07;;;;;;;17.20;100.00;99070.34;5039984;28;20071;-75
2023/08/16 03:43:37;;;;;;;7.25;5.40;;;;;;;17.25;100.00;99078.66;5040257;28;20076;-76
2023/08/16 03:46:03;;;;;;;6.72;5.60;;;;;;;17.37;100.00;99092.31;5018533;28;20511;-76
2023/08/16 03:48:29;;;;;;;9.30;6.00;;;;;;;17.30;100.00;99067.00;5021177;28;20021;-76
2023/08/16 03:50:55;;;;;;;7.40;5.18;;;;;;;17.51;100.00;99092.88;5034991;28;20053;-76
2023/08/16 03:53:20;;;;;;;10.60;5.70;;;;;;;17.52;100.00;99089.06;5019435;28;20048;-76
2023/08/16 03:55:45;;;;;;;8.63;5.65;;;;;;;17.55;100.00;99102.25;5036899;28;20045;-76
2023/08/16 03:58:10;;;;;;;7.18;5.00;;;;;;;17.69;100.00;99120.06;5019435;28;20079;-76
2023/08/16 04:00:36;;;;;;;6.15;5.05;;;;;;;17.75;100.00;99130.03;5016257;28;20083;-78
2023/08/16 04:03:04;;;;;;;7.53;5.03;;;;;;;17.71;100.00;99123.41;5018443;28;20068;-78
2023/08/16 04:05:29;;;;;;;5.93;4.28;;;;;;;17.69;100.00;99117.34;5012330;28;20123;-75
2023/08/16 04:07:54;;;;;;;10.25;5.38;;;;;;;17.69;100.00;99122.81;5032197;28;20130;-80
2023/08/16 04:10:21;;;;;;;5.57;4.68;;;;;;;17.67;100.00;99130.44;5034347;28;20047;-77
2023/08/16 04:12:46;;;;;;;8.18;5.07;;;;;;;17.62;100.00;99138.53;5036501;28;20036;-80
2023/08/16 04:15:12;;;;;;;7.72;4.93;;;;;;;17.65;100.00;99156.38;5017644;28;20064;-77
2023/08/16 04:17:37;;;;;;;10.02;5.68;;;;;;;17.77;100.00;99175.50;5030115;28;20029;-78
2023/08/16 04:20:05;;;;;;;8.85;5.95;;;;;;;17.67;100.00;99149.59;5041076;28;20029;-79
2023/08/16 04:22:31;;;;;;;9.27;6.00;;;;;;;17.74;100.00;99147.56;5022598;28;20022;-77
2023/08/16 04:24:56;;;;;;;10.70;6.75;;;;;;;17.66;100.00;99145.19;5020991;28;20092;-79
2023/08/16 04:27:22;;;;;;;11.75;8.05;;;;;;;17.81;100.00;99165.75;5015332;28;20021;-75
2023/08/16 04:29:47;;;;;;;15.10;8.32;;;;;;;17.89;100.00;99159.91;5032631;28;20040;-77
2023/08/16 04:32:12;;;;;;;13.43;8.88;;;;;;;17.88;100.00;99161.81;5035708;28;20021;-76
2023/08/16 04:34:38;;;;;;;14.35;7.80;;;;;;;17.89;100.00;99148.97;5028025;28;20551;-77
2023/08/16 04:37:04;;;;;;;8.13;5.55;;;;;;;17.86;100.00;99149.44;5027415;28;20586;-75
2023/08/16 04:39:29;;;;;;;8.23;4.63;;;;;;;17.76;100.00;99147.28;5015776;28;20024;-75
2023/08/16 04:41:54;;;;;;;5.93;4.95;;;;;;;17.74;100.00;99152.19;5048325;28;20025;-76
2023/08/16 04:44:20;;;;;;;8.38;4.80;;;;;;;17.72;100.00;99149.69;5032133;28;20079;-74
2023/08/16 04:46:45;;;;;;;8.13;5.05;;;;;;;17.64;100.00;99139.13;5027179;28;20044;-71
2023/08/16 04:49:10;;;;;;;11.70;5.50;;;;;;;17.61;100.00;99145.09;5044323;28;20116;-77
2023/08/16 04:51:36;;;;;;;6.47;5.10;;;;;;;17.69;100.00;99152.09;5036543;28;20033;-77
2023/08/16 04:54:01;;;;;;;10.73;5.78;;;;;;;17.65;100.00;99142.69;5045149;28;20398;-75
2023/08/16 04:56:27;;;;;;;10.98;6.28;;;;;;;17.71;100.00;99137.09;5031718;28;20032;-75
2023/08/16 04:58:52;;;;;;;12.52;6.30;;;;;;;17.82;100.00;99137.34;5038902;28;20030;-73
2023/08/16 05:01:19;;;;;;;16.88;7.75;;;;;;;17.91;100.00;99122.19;5047635;28;20025;-73
2023/08/16 05:03:50;;;;;;;15.45;9.23;;;;;;;17.98;100.00;99095.50;5051666;28;20093;-72
2023/08/16 05:06:16;;;;;;;19.30;10.73;;;;;;;18.19;100.00;99104.94;5049294;28;20056;-75
2023/08/16 05:08:41;;;;;;;16.60;10.85;;;;;;;18.33;100.00;99105.44;5042109;28;20025;-80
2023/08/16 05:11:06;;;;;;;23.23;12.90;;;;;;;18.43;100.00;99082.88;5029872;28;20022;-76
2023/08/16 05:13:31;;;;;;;20.88;11.90;;;;;;;18.53;100.00;99072.09;5030438;28;20032;-77
2023/08/16 05:15:57;;;;;;;27.40;12.90;;;;;;;18.57;100.00;99068.59;5043818;28;20102;-75
2023/08/16 05:18:22;;;;;;;25.10;12.73;;;;;;;18.69;100.00;99054.00;5037972;28;20056;-75
2023/08/16 05:20:47;;;;;;;23.77;12.45;;;;;;;18.74;100.00;99060.38;5048820;28;20030;-74
2023/08/16 05:23:13;;;;;;;20.88;12.80;;;;;;;18.90;100.00;99060.66;5023213;28;20116;-76
2023/08/16 05:25:38;;;;;;;19.75;11.48;;;;;;;18.97;100.00;99045.69;5024856;28;20049;-73
2023/08/16 05:28:03;;;;;;;15.75;10.65;;;;;;;19.03;100.00;99041.94;5038676;28;20021;-73
2023/08/16 05:30:29;;;;;;;16.70;11.05;;;;;;;19.15;100.00;99038.22;5035285;28;20033;-73
2023/08/16 05:32:55;;;;;;;16.17;10.13;;;;;;;19.21;100.00;99037.25;5037389;28;20090;-73
2023/08/16 05:35:20;;;;;;;15.65;10.43;;;;;;;19.37;100.00;99033.59;5037183;28;20033;-73
2023/08/16 05:37:46;;;;;;;14.93;9.43;;;;;;;19.70;100.00;99034.56;5036012;28;20037;-79
2023/08/16 05:40:11;;;;;;;14.63;9.05;;;;;;;20.00;100.00;99030.50;5010558;28;20368;-73
2023/08/16 05:42:38;;;;;;;16.02;9.48;;;;;;;20.22;100.00;99011.19;5031713;28;20014;-79
2023/08/16 05:45:04;;;;;;;15.52;8.77;;;;;;;20.51;100.00;99008.94;5020453;28;20037;-83
2023/08/16 05:47:29;;;;;;;11.85;8.32;;;;;;;20.68;100.00;99003.34;5040005;28;20414;-77
2023/08/16 05:49:55;;;;;;;9.82;7.63;;;;;;;21.24;100.00;99007.22;5020509;28;20032;-75
2023/08/16 05:52:20;;;;;;;10.95;6.40;;;;;;;21.69;100.00;98993.09;5028264;28;20021;-75
2023/08/16 05:54:45;;;;;;;8.40;6.35;;;;;;;22.08;100.00;98969.47;5013377;28;20033;-74
2023/08/16 05:57:11;;;;;;;8.25;5.82;;;;;;;22.74;100.00;98979.66;5031098;28;20087;-75
2023/08/16 05:59:36;;;;;;;10.32;6.68;;;;;;;22.92;100.00;98958.94;5037116;28;20064;-77
2023/08/16 06:02:03;;;;;;;10.10;5.90;;;;;;;23.38;100.00;98967.06;5008392;28;20427;-78
2023/08/16 06:04:28;;;;;;;7.93;4.95;;;;;;;23.65;100.00;98971.31;5033353;28;20380;-79
2023/08/16 06:06:54;;;;;;;6.93;4.63;;;;;;;24.30;100.00;98965.63;5033252;28;20032;-72
2023/08/16 06:09:20;;;;;;;10.45;4.90;;;;;;;25.56;100.00;98953.47;5033914;28;20128;-75
2023/08/16 06:11:45;;;;;;;6.97;4.55;;;;;;;28.26;100.00;98943.03;5031824;28;20053;-71
2023/08/16 06:14:11;;;;;;;8.35;4.00;;;;;;;30.64;100.00;98934.59;5007316;28;20375;-75
2023/08/16 06:16:36;;;;;;;7.45;4.07;;;;;;;31.99;100.00;98938.50;5057252;23;20114;-55
2023/08/16 06:19:02;;;;;;;5.55;3.40;;;;;;;31.99;100.00;98957.25;5031900;28;20043;-56
2023/08/16 06:21:27;;;;;;;7.05;3.20;;;;;;;31.00;100.00;98950.09;5032477;28;20106;-54
2023/08/16 06:23:54;;;;;;;4.93;2.75;;;;;;;28.54;100.00;98960.44;5025156;28;20393;-54
2023/08/16 06:26:19;;;;;;;5.80;2.53;;;;;;;26.41;100.00;98956.38;5020578;28;20236;-54
2023/08/16 06:28:46;;;;;;;5.80;2.42;;;;;;;25.50;100.00;98960.22;5028650;28;20558;-54
2023/08/16 06:31:11;;;;;;;4.32;2.47;;;;;;;25.21;100.00;98960.31;5023339;28;20082;-54
2023/08/16 06:33:37;;;;;;;8.13;2.00;;;;;;;25.17;100.00;98956.50;5029094;28;20045;-54
2023/08/16 06:36:02;;;;;;;7.43;2.05;;;;;;;24.99;100.00;98960.81;5018998;28;20025;-53
2023/08/16 06:38:28;;;;;;;2.25;1.80;;;;;;;25.43;100.00;98965.28;5030857;28;20115;-53
2023/08/16 06:40:53;;;;;;;4.05;2.20;;;;;;;25.27;100.00;98969.41;5031815;28;20032;-54
2023/08/16 06:43:18;;;;;;;3.95;2.28;;;;;;;24.76;100.00;98970.78;5040618;28;20040;-54
2023/08/16 06:45:44;;;;;;;5.32;2.40;;;;;;;24.47;100.00;98973.53;5021594;28;20032;-54
2023/08/16 06:48:09;;;;;;;3.78;2.35;;;;;;;24.33;100.00;98981.66;5028763;28;20052;-53
2023/08/16 06:50:35;;;;;;;7.82;2.60;;;;;;;24.49;100.00;98974.88;5034246;28;20103;-54
2023/08/16 06:53:01;;;;;;;2.65;1.88;;;;;;;24.24;100.00;98994.47;5047777;28;20025;-54
2023/08/16 06:55:26;;;;;;;2.85;2.10;;;;;;;24.35;100.00;98990.50;5021698;28;20121;-54
2023/08/16 06:57:52;;;;;;;7.00;2.17;;;;;;;24.34;100.00;98997.16;5024768;28;20025;-56
2023/08/16 07:00:17;;;;;;;4.05;2.53;;;;;;;24.02;100.00;98992.13;5038909;28;20032;-56
2023/08/16 07:02:43;;;;;;;7.03;2.70;;;;;;;23.72;100.00;98998.69;5031301;28;20159;-56
2023/08/16 07:05:11;;;;;;;4.03;2.78;;;;;;;23.64;100.00;99005.59;5040682;28;20044;-56
2023/08/16 07:07:36;;;;;;;6.03;2.78;;;;;;;23.76;100.00;99011.66;5031515;28;20031;-56
2023/08/16 07:10:02;;;;;;;11.73;3.08;;;;;;;24.08;100.00;99007.56;5043139;28;20028;-54
2023/08/16 07:12:27;;;;;;;4.05;2.65;;;;;;;24.40;100.00;99007.03;5025515;28;20017;-55
2023/08/16 07:14:53;;;;;;;4.82;2.80;;;;;;;24.55;100.00;99011.66;5030332;28;20025;-54
2023/08/16 07:17:18;;;;;;;8.25;2.55;;;;;;;25.00;100.00;99001.25;5043138;28;20036;-54
2023/08/16 07:19:48;;;;;;;5.95;3.00;;;;;;;26.08;100.00;98997.13;5039786;28;20392;-54
2023/08/16 07:22:13;;;;;;;5.22;3.13;;;;;;;27.40;100.00;98990.34;5034243;28;20364;-54
2023/08/16 07:24:39;;;;;;;4.85;2.60;;;;;;;27.70;100.00;98998.03;5031277;28;20033;-54
2023/08/16 07:27:04;;;;;;;4.18;2.90;;;;;;;27.33;100.00;98993.53;5022952;28;20059;-54
2023/08/16 07:29:30;;;;;;;5.85;2.85;;;;;;;27.06;100.00;98997.09;5029473;28;20036;-55
2023/08/16 07:31:55;;;;;;;6.07;3.10;;;;;;;27.03;100.00;99000.50;5030944;28;20032;-55
2023/08/16 07:34:20;;;;;;;7.30;2.78;;;;;;;27.46;100.00;98995.50;5026562;28;20068;-54
2023/08/16 07:36:46;;;;;;;5.13;2.40;;;;;;;28.29;100.00;98991.69;5034851;28;20036;-54
2023/08/16 07:39:11;;;;;;;14.82;3.08;;;;;;;28.07;100.00;98996.09;5031299;28;20044;-54
2023/08/16 07:41:37;;;;;;;7.43;2.83;;;;;;;28.38;100.00;98990.59;5024531;28;20116;-55
2023/08/16 07:44:03;;;;;;;6.38;2.97;;;;;;;28.57;100.00;98987.66;5021285;28;20067;-54
2023/08/16 07:46:28;;;;;;;6.15;2.70;;;;;;;28.90;100.00;98994.84;5021226;28;20025;-54
2023/08/16 07:48:53;;;;;;;3.80;2.38;;;;;;;29.49;100.00;98987.91;5025608;28;20481;-54
2023/08/16 07:51:19;;;;;;;5.63;2.88;;;;;;;29.58;100.00;98987.09;5017262;28;20021;-55
2023/08/16 07:53:44;;;;;;;3.63;2.55;;;;;;;31.11;100.00;98996.06;5021764;28;20029;-54
2023/08/16 07:56:11;;;;;;;4.18;2.53;;;;;;;32.68;100.00;99003.41;5028277;28;20029;-54
2023/08/16 07:58:36;;;;;;;2.88;2.17;;;;;;;34.38;97.39;99000.13;5033108;28;20471;-54
2023/08/16 08:01:02;;;;;;;6.55;2.38;;;;;;;36.28;85.67;99008.53;5045150;28;20116;-54
2023/08/16 08:03:27;;;;;;;5.65;1.90;;;;;;;37.54;73.00;99002.44;5029821;28;20139;-54
2023/08/16 08:05:53;;;;;;;4.25;1.88;;;;;;;36.37;73.40;98997.06;5034633;28;20473;-54
2023/08/16 08:08:18;;;;;;;4.57;2.50;;;;;;;35.04;80.51;99005.16;5027405;28;21088;-54
2023/08/16 08:10:44;;;;;;;4.97;2.30;;;;;;;33.55;91.70;99002.41;5024478;28;20044;-54
2023/08/16 08:13:11;;;;;;;3.72;2.47;;;;;;;34.75;90.37;99003.59;5030384;28;20064;-54
2023/08/16 08:15:36;;;;;;;3.47;2.25;;;;;;;36.32;80.32;99008.63;5029878;28;20051;-55
2023/08/16 08:18:02;;;;;;;6.28;2.50;;;;;;;35.49;80.29;99003.91;5031856;28;20036;-55
2023/08/16 08:20:27;;;;;;;3.90;2.10;;;;;;;36.26;77.45;99004.47;5023393;28;20676;-55
2023/08/16 08:22:53;;;;;;;3.60;2.45;;;;;;;38.37;69.66;99005.25;5046116;28;20047;-55
2023/08/16 08:25:18;;;;;;;6.32;2.15;;;;;;;40.46;62.03;98997.31;5018166;28;20100;-55
2023/08/16 08:27:44;;;;;;;6.50;3.15;;;;;;;41.73;58.38;98992.16;5031173;28;20411;-54
2023/08/16 08:30:09;;;;;;;5.95;2.97;;;;;;;41.99;53.88;98996.59;5026186;28;20439;-55
2023/08/16 08:32:35;;;;;;;3.72;2.20;;;;;;;41.12;53.62;98997.06;5029635;28;20532;-55
2023/08/16 08:35:02;;;;;;;4.78;2.45;;;;;;;41.69;52.96;98988.53;5025750;28;20452;-55
2023/08/16 08:37:28;;;;;;;6.53;2.22;;;;;;;42.53;51.10;98989.91;5043390;28;20029;-56
2023/08/16 08:39:53;;;;;;;5.55;1.88;;;;;;;42.60;50.33;98981.31;5029388;28;20438;-56
2023/08/16 08:42:21;;;;;;;3.03;1.85;;;;;;;42.43;50.93;98988.75;5026103;28;20026;-56
2023/08/16 08:44:47;;;;;;;2.70;2.00;;;;;;;42.17;50.91;98990.84;5035643;28;20697;-56
2023/08/16 08:47:12;;;;;;;3.50;2.33;;;;;;;41.57;49.78;98986.94;5047776;28;20124;-56
2023/08/16 08:49:39;;;;;;;6.70;2.05;;;;;;;41.46;51.45;98985.31;5033339;28;20025;-56
2023/08/16 08:52:05;;;;;;;6.70;2.10;;;;;;;42.59;51.68;98979.72;5032870;28;20427;-56
2023/08/16 08:54:31;;;;;;;2.47;2.03;;;;;;;43.80;47.79;98982.84;5033816;28;20063;-56
2023/08/16 08:57:02;;;;;;;3.17;2.08;;;;;;;44.28;46.37;98981.88;5030360;28;20384;-57
2023/08/16 08:59:29;;;;;;;3.15;1.90;;;;;;;42.15;48.29;98987.59;5039896;28;20025;-57
2023/08/16 09:01:56;;;;;;;4.77;2.30;;;;;;;41.33;50.10;98993.44;5032773;28;20053;-57
2023/08/16 09:04:22;;;;;;;7.07;1.90;;;;;;;42.68;48.62;98985.75;5032207;28;20389;-57
2023/08/16 09:06:49;;;;;;;4.68;2.13;;;;;;;43.18;47.16;98982.63;5032086;28;20025;-57
2023/08/16 09:09:14;;;;;;;5.57;2.35;;;;;;;42.85;47.01;98979.16;5027238;28;20032;-57
2023/08/16 09:11:41;;;;;;;4.40;2.00;;;;;;;43.45;45.94;98987.66;5044844;28;20029;-55
2023/08/16 09:14:07;;;;;;;5.43;2.28;;;;;;;43.02;46.66;98976.59;5033605;28;20040;-55
2023/08/16 09:16:32;;;;;;;3.15;2.15;;;;;;;43.13;46.64;98977.34;5028326;28;20029;-56
2023/08/16 09:18:58;;;;;;;3.30;1.73;;;;;;;43.03;44.64;98972.53;5027963;28;20059;-55
2023/08/16 09:21:24;;;;;;;6.45;1.95;;;;;;;43.74;43.94;98969.06;5040578;28;20029;-55
2023/08/16 09:23:57;;;;;;;3.63;2.40;;;;;;;42.10;45.13;98973.81;5025864;28;20061;-54
2023/08/16 09:26:23;;;;;;;6.13;2.50;;;;;;;42.13;45.12;98969.34;5024024;28;20021;-55
2023/08/16 09:29:00;;;;;;;3.33;2.35;;;;;;;40.55;47.76;98957.22;5028884;28;20091;-54
2023/08/16 09:31:27;;;;;;;8.15;2.97;;;;;;;40.42;48.23;98951.09;5028061;28;20072;-54
2023/08/16 09:33:54;;;;;;;4.90;2.33;;;;;;;41.24;48.29;98956.09;5044806;28;20116;-54
2023/08/16 09:36:20;;;;;;;5.83;2.10;;;;;;;39.81;50.32;98945.16;5029325;28;20028;-54
2023/08/16 09:38:47;;;;;;;8.27;2.40;;;;;;;37.74;54.33;98939.03;5031006;28;20059;-55
2023/08/16 09:41:19;;;;;;;4.10;2.35;;;;;;;37.21;55.41;98945.47;5018726;28;20362;-54
2023/08/16 09:43:44;;;;;;;4.18;2.47;;;;;;;38.50;55.59;98937.97;5038130;28;20033;-54
2023/08/16 09:46:11;;;;;;;3.92;2.28;;;;;;;39.87;53.07;98943.56;5030512;28;20082;-54
2023/08/16 09:48:38;;;;;;;3.38;2.40;;;;;;;41.11;48.94;98938.66;5028899;28;20037;-54
2023/08/16 09:51:04;;;;;;;3.42;2.42;;;;;;;41.87;47.77;98937.34;5016381;28;21148;-54
2023/08/16 09:53:32;;;;;;;5.70;2.45;;;;;;;43.09;46.72;98928.13;5031396;28;20071;-54
2023/08/16 09:56:00;;;;;;;5.43;2.70;;;;;;;43.44;44.79;98924.19;5048364;28;20033;-56
2023/08/16 09:58:27;;;;;;;6.25;2.92;;;;;;;43.43;45.09;98931.09;5027803;28;20097;-56
2023/08/16 10:00:54;;;;;;;4.60;2.67;;;;;;;43.67;43.82;98920.69;5031147;28;20021;-55
2023/08/16 10:03:20;;;;;;;5.30;2.40;;;;;;;43.16;44.29;98916.69;5041282;28;20032;-54
2023/08/16 10:05:46;;;;;;;4.75;2.25;;;;;;;42.19;45.27;98923.03;5038525;28;20454;-55
2023/08/16 10:08:12;;;;;;;6.88;3.08;;;;;;;40.90;47.28;98926.09;5029457;28;20057;-54
2023/08/16 10:10:39;;;;;;;3.67;2.38;;;;;;;41.27;47.39;98926.91;5024323;28;20119;-55
2023/08/16 10:13:07;;;;;;;5.57;2.28;;;;;;;39.27;51.11;98927.78;5023021;28;20080;-56
2023/08/16 10:15:33;;;;;;;7.00;3.40;;;;;;;37.62;54.33;98925.94;5025489;28;20028;-56
2023/08/16 10:18:00;;;;;;;5.97;2.90;;;;;;;36.51;57.46;98929.69;5041992;28;20025;-56
2023/08/16 10:20:29;;;;;;;3.47;2.80;;;;;;;35.58;61.66;98929.75;5019835;28;20046;-56
2023/08/16 10:22:59;;;;;;;5.40;2.70;;;;;;;38.15;57.01;98920.22;5033817;28;20021;-56
2023/08/16 10:25:36;;;;;;;4.45;2.75;;;;;;;37.89;56.59;98920.28;5017838;28;20056;-57
2023/08/16 10:28:02;;;;;;;3.33;2.63;;;;;;;37.59;58.83;98923.06;5025257;28;20032;-56
2023/08/16 10:30:29;;;;;;;4.63;2.72;;;;;;;38.38;55.87;98919.25;5025710;28;20124;-56
2023/08/16 10:32:59;;;;;;;7.57;2.78;;;;;;;37.88;55.64;98927.91;5022069;28;20025;-54
2023/08/16 10:35:26;;;;;;;6.25;2.72;;;;;;;38.08;57.26;98928.59;5025206;28;20032;-54
2023/08/16 10:37:53;;;;;;;5.78;3.17;;;;;;;39.68;53.45;98922.00;5026141;28;20045;-54
2023/08/16 10:40:20;;;;;;;6.50;2.88;;;;;;;38.64;54.09;98920.34;5023221;28;20476;-54
2023/08/16 10:42:55;;;;;;;3.75;2.65;;;;;;;38.46;53.91;98917.34;5031759;28;20021;-54
2023/08/16 10:45:34;;;;;;;5.53;2.95;;;;;;;39.31;52.76;98914.47;5024635;28;20033;-54
2023/08/16 10:48:17;;;;;;;4.95;3.00;;;;;;;36.71;58.11;98918.38;5025056;28;20031;-55
2023/08/16 10:50:44;;;;;;;5.82;3.10;;;;;;;35.87;61.96;98911.47;5030329;28;20082;-55
2023/08/16 10:53:17;;;;;;;5.57;2.97;;;;;;;35.96;63.39;98915.72;5027815;28;20025;-54
2023/08/16 10:55:50;;;;;;;5.60;3.03;;;;;;;36.49;60.91;98908.72;5015316;28;20108;-55
2023/08/16 10:58:21;;;;;;;5.07;3.10;;;;;;;36.83;61.25;98916.19;5022464;28;20439;-54
2023/08/16 11:00:59;;;;;;;4.53;2.83;;;;;;;36.89;62.17;98904.59;5031894;28;20365;-54
2023/08/16 11:03:33;;;;;;;4.50;2.75;;;;;;;38.81;56.88;98902.75;5033485;28;20025;-54
2023/08/16 11:06:02;;;;;;;6.53;3.08;;;;;;;42.08;50.86;98907.22;5031550;28;20143;-55
2023/08/16 11:08:31;;;;;;;4.43;2.60;;;;;;;41.70;50.04;98898.44;5023396;28;20033;-55
2023/08/16 11:10:58;;;;;;;5.38;3.33;;;;;;;41.85;50.41;98896.34;5024991;28;20070;-55
2023/08/16 11:13:24;;;;;;;4.53;2.63;;;;;;;41.80;49.86;98887.03;5016749;28;20033;-55
2023/08/16 11:15:49;;;;;;;3.65;2.80;;;;;;;42.65;47.54;98884.94;5020822;28;20021;-55
2023/08/16 11:18:32;;;;;;;4.32;2.28;;;;;;;44.34;46.62;98880.34;5030127;28;20111;-55
2023/08/16 11:20:59;;;;;;;4.50;2.20;;;;;;;44.59;45.06;98880.78;5025358;28;20381;-55
2023/08/16 11:23:46;;;;;;;3.65;2.17;;;;;;;44.86;45.24;98874.28;5030886;28;20029;-55